Time;durP1;ratioP1;P1;durP2;ratioP2;P2;SDS_P1;SDS_P2;PMS_P1;PMS_P2;Temp;Humidity;BMP_temperature;BMP_pressure;BME280_temperature;BME280_humidity;BME280_pressure;Samples;Min_cycle;Max_cycle;Signal;HPM_P1;HPM_P2
2023/08/06 00:01:48;;;;;;;6.22;5.63;;;;;;;;;;5036702;28;20120;-60
2023/08/06 00:04:13;;;;;;;6.70;6.05;;;;;;;;;;5037209;28;20112;-60
2023/08/06 00:06:39;;;;;;;6.38;5.28;;;;;;;;;;5036611;28;20025;-60
2023/08/06 00:09:04;;;;;;;7.25;5.35;;;;;;;;;;5036780;28;20060;-60
2023/08/06 00:11:30;;;;;;;5.35;4.85;;;;;;;;;;5036812;28;20029;-60
2023/08/06 00:13:55;;;;;;;5.80;5.13;;;;;;;;;;5036492;28;20030;-60
2023/08/06 00:16:20;;;;;;;7.00;6.40;;;;;;;;;;5036993;28;20026;-60
2023/08/06 00:18:46;;;;;;;6.20;5.70;;;;;;;;;;5036306;28;20030;-60
2023/08/06 00:21:14;;;;;;;7.10;5.82;;;;;;;;;;5036343;28;20037;-60
2023/08/06 00:23:40;;;;;;;8.05;6.32;;;;;;;;;;5036883;28;20367;-60
2023/08/06 00:26:05;;;;;;;5.65;5.07;;;;;;;;;;5036267;28;20037;-60
2023/08/06 00:28:30;;;;;;;5.88;5.35;;;;;;;;;;5036121;28;20095;-60
2023/08/06 00:30:56;;;;;;;4.07;3.70;;;;;;;;;;5034909;28;20040;-60
2023/08/06 00:33:22;;;;;;;5.15;4.55;;;;;;;;;;5036422;28;20034;-60
2023/08/06 00:35:47;;;;;;;4.85;4.35;;;;;;;;;;5018322;28;20021;-60
2023/08/06 00:38:13;;;;;;;6.30;4.60;;;;;;;;;;5036032;28;20038;-60
2023/08/06 00:40:39;;;;;;;3.50;3.30;;;;;;;;;;5035846;28;20096;-60
2023/08/06 00:43:04;;;;;;;3.15;2.95;;;;;;;;;;5018171;28;20505;-60
2023/08/06 00:45:33;;;;;;;2.40;2.30;;;;;;;;;;5034532;28;20025;-60
2023/08/06 00:47:59;;;;;;;2.58;2.38;;;;;;;;;;5036124;28;20456;-60
2023/08/06 00:50:24;;;;;;;2.80;2.70;;;;;;;;;;5036076;28;20029;-60
2023/08/06 00:52:50;;;;;;;2.90;2.70;;;;;;;;;;5035751;28;20401;-60
2023/08/06 00:55:15;;;;;;;2.85;2.65;;;;;;;;;;5018220;28;20506;-60
2023/08/06 00:57:41;;;;;;;3.05;2.88;;;;;;;;;;5035226;28;20045;-60
2023/08/06 01:00:07;;;;;;;3.22;2.92;;;;;;;;;;5035916;28;20045;-60
2023/08/06 01:02:32;;;;;;;3.08;2.97;;;;;;;;;;5017865;28;20029;-60
2023/08/06 01:04:58;;;;;;;2.78;2.67;;;;;;;;;;5034304;28;20025;-60
2023/08/06 01:07:41;;;;;;;4.13;2.83;;;;;;;;;;5035416;28;20357;-60
2023/08/06 01:10:07;;;;;;;3.47;3.28;;;;;;;;;;5035435;28;20040;-60
2023/08/06 01:15:36;;;;;;;3.50;3.30;;;;;;;;;;5040258;22;20191;-60
2023/08/06 01:18:02;;;;;;;3.60;3.40;;;;;;;;;;5014290;28;20026;-56
2023/08/06 01:20:28;;;;;;;3.67;3.45;;;;;;;;;;5015539;28;20395;-60
2023/08/06 01:22:53;;;;;;;3.55;3.35;;;;;;;;;;5015416;28;20445;-60
2023/08/06 01:25:19;;;;;;;3.33;3.13;;;;;;;;;;5014192;28;20025;-60
2023/08/06 01:27:48;;;;;;;3.67;3.47;;;;;;;;;;5015517;28;20041;-60
2023/08/06 01:30:25;;;;;;;3.05;2.95;;;;;;;;;;5015308;28;20065;-60
2023/08/06 01:32:53;;;;;;;3.35;3.15;;;;;;;;;;5015530;28;20029;-60
2023/08/06 01:35:19;;;;;;;3.50;3.28;;;;;;;;;;5013929;28;20076;-60
2023/08/06 01:37:45;;;;;;;3.58;3.38;;;;;;;;;;5015173;28;20087;-60
2023/08/06 01:40:11;;;;;;;3.88;3.67;;;;;;;;;;5013878;28;20384;-60
2023/08/06 01:42:37;;;;;;;3.67;3.47;;;;;;;;;;5015112;28;20022;-60
2023/08/06 01:45:02;;;;;;;3.53;3.33;;;;;;;;;;5015036;28;20083;-60
2023/08/06 01:47:28;;;;;;;4.00;3.80;;;;;;;;;;5015214;28;20422;-60
2023/08/06 01:49:53;;;;;;;3.25;3.05;;;;;;;;;;4997593;28;20029;-60
2023/08/06 01:52:18;;;;;;;3.63;3.33;;;;;;;;;;5014936;28;20025;-60
2023/08/06 01:54:44;;;;;;;3.22;3.03;;;;;;;;;;5014872;28;20523;-60
2023/08/06 01:57:09;;;;;;;3.75;3.47;;;;;;;;;;4997256;28;20026;-60
2023/08/06 01:59:35;;;;;;;3.92;3.63;;;;;;;;;;4997180;28;20037;-60
2023/08/06 02:02:00;;;;;;;4.05;3.67;;;;;;;;;;4997174;28;20119;-60
2023/08/06 02:04:25;;;;;;;3.50;3.30;;;;;;;;;;5014708;28;20025;-60
2023/08/06 02:06:51;;;;;;;3.60;3.30;;;;;;;;;;5014651;28;20083;-60
2023/08/06 02:09:16;;;;;;;3.38;3.17;;;;;;;;;;4996657;28;20121;-60
2023/08/06 02:11:41;;;;;;;3.97;3.38;;;;;;;;;;5014834;28;20022;-60
2023/08/06 02:14:07;;;;;;;3.60;3.40;;;;;;;;;;4996943;28;20038;-60
2023/08/06 02:16:32;;;;;;;3.47;3.28;;;;;;;;;;4996809;28;20064;-60
2023/08/06 02:18:57;;;;;;;3.53;3.22;;;;;;;;;;5014450;28;20030;-60
2023/08/06 02:21:22;;;;;;;4.43;4.18;;;;;;;;;;4996779;28;20030;-60
2023/08/06 02:23:48;;;;;;;3.58;3.28;;;;;;;;;;5014393;28;20032;-60
2023/08/06 02:26:13;;;;;;;3.88;3.67;;;;;;;;;;5014344;28;20035;-60
2023/08/06 02:28:39;;;;;;;4.28;3.15;;;;;;;;;;5014209;28;20046;-60
2023/08/06 02:31:06;;;;;;;3.80;3.60;;;;;;;;;;5012995;28;20018;-60
2023/08/06 02:33:31;;;;;;;3.70;3.40;;;;;;;;;;5014217;28;20025;-60
2023/08/06 02:36:01;;;;;;;3.63;3.42;;;;;;;;;;5014239;28;20412;-60
2023/08/06 02:38:26;;;;;;;3.93;3.60;;;;;;;;;;5014715;28;20058;-60
2023/08/06 02:40:52;;;;;;;4.00;3.67;;;;;;;;;;4996541;28;20025;-60
2023/08/06 02:43:17;;;;;;;3.65;3.42;;;;;;;;;;4996543;28;20084;-60
2023/08/06 02:45:42;;;;;;;3.78;3.58;;;;;;;;;;5012809;28;20038;-60
2023/08/06 02:48:08;;;;;;;4.05;3.78;;;;;;;;;;5012692;28;20025;-60
2023/08/06 02:50:40;;;;;;;3.65;3.45;;;;;;;;;;5014006;28;20029;-60
2023/08/06 02:53:06;;;;;;;3.50;3.20;;;;;;;;;;4996416;28;20034;-60
2023/08/06 02:55:32;;;;;;;4.10;3.88;;;;;;;;;;5013007;28;20034;-60
2023/08/06 02:57:57;;;;;;;3.80;3.60;;;;;;;;;;4996277;28;20034;-60
2023/08/06 03:00:23;;;;;;;4.47;4.07;;;;;;;;;;5012751;28;20029;-60
2023/08/06 03:02:48;;;;;;;4.05;3.85;;;;;;;;;;4995988;28;20041;-60
2023/08/06 03:05:22;;;;;;;4.18;3.83;;;;;;;;;;5006530;28;20018;-60
2023/08/06 03:07:48;;;;;;;3.85;3.63;;;;;;;;;;5000657;28;20118;-61
2023/08/06 03:10:20;;;;;;;4.28;4.05;;;;;;;;;;5013432;28;20022;-60
2023/08/06 03:12:46;;;;;;;4.30;4.10;;;;;;;;;;5005079;28;20545;-61
2023/08/06 03:15:12;;;;;;;4.78;4.05;;;;;;;;;;5029355;28;20033;-61
2023/08/06 03:17:38;;;;;;;4.57;4.18;;;;;;;;;;5032194;28;20511;-61
2023/08/06 03:20:06;;;;;;;4.88;4.47;;;;;;;;;;5034446;28;20362;-61
2023/08/06 03:22:33;;;;;;;5.75;4.60;;;;;;;;;;5035856;28;20120;-61
2023/08/06 03:24:59;;;;;;;4.88;4.50;;;;;;;;;;5036711;28;20057;-60
2023/08/06 03:27:26;;;;;;;6.32;4.72;;;;;;;;;;5036092;28;20502;-60
2023/08/06 03:29:52;;;;;;;5.22;4.80;;;;;;;;;;5036277;28;20033;-60
2023/08/06 03:32:19;;;;;;;5.63;4.97;;;;;;;;;;5036199;28;20029;-60
2023/08/06 03:34:45;;;;;;;5.65;5.13;;;;;;;;;;5036471;28;20067;-60
2023/08/06 03:37:11;;;;;;;5.47;4.97;;;;;;;;;;5035780;28;20028;-60
2023/08/06 03:39:36;;;;;;;5.53;5.05;;;;;;;;;;5035971;28;20083;-60
2023/08/06 03:42:01;;;;;;;5.90;5.30;;;;;;;;;;5036162;28;20037;-60
2023/08/06 03:44:28;;;;;;;6.03;5.53;;;;;;;;;;5035680;28;20112;-60
2023/08/06 03:46:53;;;;;;;6.97;6.20;;;;;;;;;;5036063;28;20068;-61
2023/08/06 03:49:20;;;;;;;6.40;5.85;;;;;;;;;;5035821;28;20080;-61
2023/08/06 03:51:46;;;;;;;6.95;6.25;;;;;;;;;;5035645;28;20483;-61
2023/08/06 03:54:12;;;;;;;7.55;6.80;;;;;;;;;;5035743;28;20026;-61
2023/08/06 03:56:37;;;;;;;7.35;6.63;;;;;;;;;;5037103;28;20018;-61
2023/08/06 03:59:02;;;;;;;7.32;6.50;;;;;;;;;;5037070;28;20037;-55
2023/08/06 04:01:28;;;;;;;7.93;6.65;;;;;;;;;;5037261;28;20423;-55
2023/08/06 04:03:53;;;;;;;7.18;6.57;;;;;;;;;;5036720;28;20112;-56
2023/08/06 04:06:18;;;;;;;9.40;7.30;;;;;;;;;;5035441;28;20480;-61
2023/08/06 04:08:44;;;;;;;7.18;6.57;;;;;;;;;;5035550;28;20113;-56
2023/08/06 04:11:09;;;;;;;7.50;6.80;;;;;;;;;;5036740;28;20041;-56
2023/08/06 04:13:35;;;;;;;8.25;6.80;;;;;;;;;;5036870;28;20021;-56
2023/08/06 04:16:01;;;;;;;8.82;6.97;;;;;;;;;;5036387;28;20041;-61
2023/08/06 04:18:26;;;;;;;8.60;7.25;;;;;;;;;;5035307;28;20395;-61
2023/08/06 04:20:52;;;;;;;8.25;7.45;;;;;;;;;;5018784;28;20033;-61
2023/08/06 04:23:18;;;;;;;7.80;7.00;;;;;;;;;;5035145;28;20068;-61
2023/08/06 04:25:43;;;;;;;7.78;7.07;;;;;;;;;;5034979;28;20483;-56
2023/08/06 04:28:08;;;;;;;7.82;6.80;;;;;;;;;;5034821;28;20108;-55
2023/08/06 04:30:34;;;;;;;7.60;6.85;;;;;;;;;;5036757;28;20471;-56
2023/08/06 04:33:01;;;;;;;8.45;7.50;;;;;;;;;;5034383;28;20492;-55
2023/08/06 04:35:26;;;;;;;7.35;6.68;;;;;;;;;;5034876;28;20033;-55
2023/08/06 04:37:52;;;;;;;7.82;7.03;;;;;;;;;;5034782;28;20483;-61
2023/08/06 04:40:17;;;;;;;8.02;6.90;;;;;;;;;;5034619;28;20033;-61
2023/08/06 04:42:43;;;;;;;6.90;6.30;;;;;;;;;;5034701;28;20079;-55
2023/08/06 04:45:08;;;;;;;6.55;5.95;;;;;;;;;;5036451;28;20037;-55
2023/08/06 04:47:34;;;;;;;6.68;6.07;;;;;;;;;;5034725;28;20029;-61
2023/08/06 04:49:59;;;;;;;6.43;5.90;;;;;;;;;;5035832;28;20043;-61
2023/08/06 04:52:27;;;;;;;6.35;5.70;;;;;;;;;;5036235;28;20033;-61
2023/08/06 04:54:53;;;;;;;6.40;5.80;;;;;;;;;;5036427;28;20108;-61
2023/08/06 04:57:18;;;;;;;6.05;5.55;;;;;;;;;;5035953;28;20072;-60
2023/08/06 04:59:44;;;;;;;5.93;5.43;;;;;;;;;;5035916;28;20025;-60
2023/08/06 05:02:09;;;;;;;7.32;5.82;;;;;;;;;;5035678;28;20030;-60
2023/08/06 05:04:34;;;;;;;5.65;5.15;;;;;;;;;;5034808;28;20478;-60
2023/08/06 05:07:00;;;;;;;6.90;5.82;;;;;;;;;;5035920;28;20128;-60
2023/08/06 05:09:25;;;;;;;5.50;5.10;;;;;;;;;;5035854;28;20029;-60
2023/08/06 05:11:51;;;;;;;5.78;5.20;;;;;;;;;;5035650;28;20026;-55
2023/08/06 05:14:16;;;;;;;5.57;4.93;;;;;;;;;;5035257;28;20108;-56
2023/08/06 05:16:41;;;;;;;5.50;5.10;;;;;;;;;;5035632;28;20030;-55
2023/08/06 05:19:07;;;;;;;5.47;4.97;;;;;;;;;;5035315;28;20116;-56
2023/08/06 05:21:32;;;;;;;6.53;5.90;;;;;;;;;;5035401;28;20034;-56
2023/08/06 05:23:57;;;;;;;6.22;5.70;;;;;;;;;;5035511;28;20468;-56
2023/08/06 05:26:22;;;;;;;6.00;5.40;;;;;;;;;;5035497;28;20053;-61
2023/08/06 05:28:48;;;;;;;6.40;5.80;;;;;;;;;;5035426;28;20380;-61
2023/08/06 05:31:13;;;;;;;6.03;5.43;;;;;;;;;;5035531;28;20029;-61
2023/08/06 05:33:38;;;;;;;7.00;5.90;;;;;;;;;;5035298;28;20502;-55
2023/08/06 05:36:04;;;;;;;6.22;5.72;;;;;;;;;;5034976;28;20044;-55
2023/08/06 05:38:29;;;;;;;7.10;6.07;;;;;;;;;;5033612;28;20041;-60
2023/08/06 05:40:55;;;;;;;6.00;5.25;;;;;;;;;;5035169;28;20030;-61
2023/08/06 05:43:20;;;;;;;6.68;6.15;;;;;;;;;;5034855;28;20056;-61
2023/08/06 05:45:48;;;;;;;6.47;5.95;;;;;;;;;;5035138;28;20427;-61
2023/08/06 05:48:14;;;;;;;6.85;6.20;;;;;;;;;;5035260;28;20061;-61
2023/08/06 05:53:18;;;;;;;6.78;6.18;;;;;;;;;;5058972;22;20049;-56
2023/08/06 05:55:44;;;;;;;7.38;6.65;;;;;;;;;;5068767;22;20071;-60
2023/08/06 05:58:10;;;;;;;7.22;6.55;;;;;;;;;;5054790;28;20383;-61
2023/08/06 06:00:35;;;;;;;7.65;6.95;;;;;;;;;;5054425;28;20040;-61
2023/08/06 06:03:00;;;;;;;6.80;6.30;;;;;;;;;;5054683;28;20036;-61
2023/08/06 06:05:26;;;;;;;6.68;6.10;;;;;;;;;;5054648;28;20021;-61
2023/08/06 06:07:51;;;;;;;6.60;6.07;;;;;;;;;;5054505;28;20041;-61
2023/08/06 06:10:16;;;;;;;7.38;6.43;;;;;;;;;;5054573;28;20021;-61
2023/08/06 06:12:42;;;;;;;6.78;5.95;;;;;;;;;;5054193;28;20025;-61
2023/08/06 06:15:07;;;;;;;6.40;5.80;;;;;;;;;;5054219;28;20112;-60
2023/08/06 06:17:33;;;;;;;7.07;6.47;;;;;;;;;;5054114;28;20106;-60
2023/08/06 06:19:58;;;;;;;6.53;5.95;;;;;;;;;;5054160;28;20108;-60
2023/08/06 06:22:23;;;;;;;6.68;6.07;;;;;;;;;;5054276;28;20037;-60
2023/08/06 06:24:49;;;;;;;7.07;6.45;;;;;;;;;;5054015;28;20087;-60
2023/08/06 06:27:14;;;;;;;7.20;6.50;;;;;;;;;;5053903;28;20033;-61
2023/08/06 06:29:39;;;;;;;6.57;5.97;;;;;;;;;;5036057;28;20371;-61
2023/08/06 06:32:05;;;;;;;7.43;6.72;;;;;;;;;;5053885;28;20032;-61
2023/08/06 06:34:30;;;;;;;7.07;6.38;;;;;;;;;;5053920;28;20017;-61
2023/08/06 06:36:55;;;;;;;7.30;6.57;;;;;;;;;;5053807;28;20360;-60
2023/08/06 06:39:21;;;;;;;7.10;6.20;;;;;;;;;;5053755;28;20040;-61
2023/08/06 06:41:46;;;;;;;7.25;6.35;;;;;;;;;;5053852;28;20040;-61
2023/08/06 06:44:22;;;;;;;7.43;6.65;;;;;;;;;;5053693;28;20036;-60
2023/08/06 06:46:47;;;;;;;7.15;6.45;;;;;;;;;;5053586;28;20032;-60
2023/08/06 06:49:12;;;;;;;7.15;6.50;;;;;;;;;;5053697;28;20104;-60
2023/08/06 06:51:38;;;;;;;7.07;6.30;;;;;;;;;;5053686;28;20552;-60
2023/08/06 06:54:03;;;;;;;8.30;6.65;;;;;;;;;;5053391;28;20017;-60
2023/08/06 06:56:28;;;;;;;7.05;6.35;;;;;;;;;;5053205;28;20398;-60
2023/08/06 06:58:54;;;;;;;7.22;6.50;;;;;;;;;;5053651;28;20124;-61
2023/08/06 07:01:19;;;;;;;7.32;6.63;;;;;;;;;;5053475;28;20037;-60
2023/08/06 07:03:44;;;;;;;7.50;6.43;;;;;;;;;;5035599;28;20029;-60
2023/08/06 07:06:10;;;;;;;8.13;6.25;;;;;;;;;;5035767;28;20033;-60
2023/08/06 07:08:36;;;;;;;6.95;6.18;;;;;;;;;;5053566;28;20045;-60
2023/08/06 07:11:02;;;;;;;7.05;6.03;;;;;;;;;;5053506;28;20071;-61
2023/08/06 07:13:27;;;;;;;6.38;5.82;;;;;;;;;;5053555;28;20061;-60
2023/08/06 07:15:53;;;;;;;5.70;5.20;;;;;;;;;;5052133;28;20068;-61
2023/08/06 07:18:19;;;;;;;6.28;5.68;;;;;;;;;;5053689;28;20188;-61
2023/08/06 07:20:48;;;;;;;5.88;5.38;;;;;;;;;;5053477;28;20028;-61
2023/08/06 07:23:20;;;;;;;7.28;5.68;;;;;;;;;;5053332;28;20037;-61
2023/08/06 07:25:46;;;;;;;5.78;5.30;;;;;;;;;;5053286;28;20078;-60
2023/08/06 07:28:11;;;;;;;5.35;4.85;;;;;;;;;;5053192;28;20016;-61
2023/08/06 07:30:40;;;;;;;5.03;4.72;;;;;;;;;;5053250;28;20029;-61
2023/08/06 07:33:06;;;;;;;5.00;4.63;;;;;;;;;;5053324;28;20064;-61
2023/08/06 07:35:31;;;;;;;5.97;4.78;;;;;;;;;;5035336;28;20344;-55
2023/08/06 07:37:57;;;;;;;5.40;4.90;;;;;;;;;;5053287;28;20040;-60
2023/08/06 07:40:22;;;;;;;4.95;4.45;;;;;;;;;;5066850;22;20049;-61
2023/08/06 07:42:47;;;;;;;6.68;5.80;;;;;;;;;;5053433;28;20087;-56
2023/08/06 07:45:15;;;;;;;5.45;5.03;;;;;;;;;;5052794;28;20013;-61
2023/08/06 07:47:40;;;;;;;6.10;5.55;;;;;;;;;;5051796;28;20071;-56
2023/08/06 07:50:06;;;;;;;5.97;4.85;;;;;;;;;;5053334;28;20021;-56
2023/08/06 07:52:32;;;;;;;4.38;4.13;;;;;;;;;;5053354;28;20096;-56
2023/08/06 07:54:58;;;;;;;5.65;5.15;;;;;;;;;;5053321;28;20036;-56
2023/08/06 07:57:23;;;;;;;4.65;4.25;;;;;;;;;;5066966;22;20057;-60
2023/08/06 07:59:49;;;;;;;2.55;2.45;;;;;;;;;;5051907;28;20036;-56
2023/08/06 08:02:14;;;;;;;1.27;1.17;;;;;;;;;;5052020;28;20024;-55
2023/08/06 08:04:39;;;;;;;1.00;1.00;;;;;;;;;;5051903;28;20029;-60
2023/08/06 08:07:05;;;;;;;0.98;0.98;;;;;;;;;;5053150;28;20048;-60
2023/08/06 08:09:30;;;;;;;0.90;0.90;;;;;;;;;;5055565;28;20483;-56
2023/08/06 08:11:56;;;;;;;3.33;1.20;;;;;;;;;;5055543;28;20025;-55
2023/08/06 08:14:21;;;;;;;1.42;1.33;;;;;;;;;;5055551;28;20533;-56
2023/08/06 08:16:46;;;;;;;2.78;1.50;;;;;;;;;;5055341;28;20013;-55
2023/08/06 08:19:12;;;;;;;1.40;1.13;;;;;;;;;;5055454;28;20036;-55
2023/08/06 08:21:37;;;;;;;1.92;0.98;;;;;;;;;;5055261;28;20060;-55
2023/08/06 08:24:03;;;;;;;2.22;0.80;;;;;;;;;;5055223;28;20108;-55
2023/08/06 08:26:29;;;;;;;0.60;0.60;;;;;;;;;;5055230;28;20490;-55
2023/08/06 08:28:54;;;;;;;2.88;1.00;;;;;;;;;;5055219;28;20265;-55
2023/08/06 08:31:19;;;;;;;0.60;0.60;;;;;;;;;;5055068;28;20471;-55
2023/08/06 08:33:44;;;;;;;1.25;0.70;;;;;;;;;;5055202;28;20079;-55
2023/08/06 08:36:10;;;;;;;0.70;0.70;;;;;;;;;;5055099;28;20088;-55
2023/08/06 08:38:35;;;;;;;2.25;0.73;;;;;;;;;;5055027;28;20052;-55
2023/08/06 08:41:01;;;;;;;0.88;0.77;;;;;;;;;;5054902;28;20059;-55
2023/08/06 08:43:26;;;;;;;0.93;0.82;;;;;;;;;;5054946;28;20040;-55
2023/08/06 08:45:55;;;;;;;1.02;1.02;;;;;;;;;;5054948;28;20033;-55
2023/08/06 08:48:21;;;;;;;1.20;1.10;;;;;;;;;;5055095;28;20047;-55
2023/08/06 08:50:48;;;;;;;1.25;1.02;;;;;;;;;;5054912;28;20025;-55
2023/08/06 08:53:14;;;;;;;2.85;1.20;;;;;;;;;;5055495;28;20455;-55
2023/08/06 08:55:40;;;;;;;2.22;1.30;;;;;;;;;;5055403;28;20031;-55
2023/08/06 08:58:05;;;;;;;2.00;1.35;;;;;;;;;;5055179;28;20080;-55
2023/08/06 09:00:31;;;;;;;0.88;0.88;;;;;;;;;;5055379;28;20057;-56
2023/08/06 09:02:58;;;;;;;0.90;0.90;;;;;;;;;;5055174;28;20044;-56
2023/08/06 09:05:26;;;;;;;2.17;0.90;;;;;;;;;;5055305;28;20116;-56
2023/08/06 09:07:52;;;;;;;0.90;0.63;;;;;;;;;;5053729;28;20104;-56
2023/08/06 09:10:19;;;;;;;1.10;0.70;;;;;;;;;;5055173;28;20051;-56
2023/08/06 09:12:45;;;;;;;1.38;0.90;;;;;;;;;;5055145;28;20021;-56
2023/08/06 09:15:10;;;;;;;2.78;1.00;;;;;;;;;;5054802;28;20474;-56
2023/08/06 09:17:36;;;;;;;1.10;1.00;;;;;;;;;;5054539;28;20041;-56
2023/08/06 09:20:11;;;;;;;1.20;1.00;;;;;;;;;;5054958;28;20029;-56
2023/08/06 09:22:37;;;;;;;1.30;1.20;;;;;;;;;;5054461;28;20463;-56
2023/08/06 09:25:04;;;;;;;1.08;1.00;;;;;;;;;;5054344;28;20033;-56
2023/08/06 09:27:29;;;;;;;0.90;0.90;;;;;;;;;;5054062;28;20033;-56
2023/08/06 09:29:54;;;;;;;0.80;0.80;;;;;;;;;;5054752;28;20071;-56
2023/08/06 09:32:20;;;;;;;0.85;0.70;;;;;;;;;;5036888;28;20453;-56
2023/08/06 09:34:45;;;;;;;1.40;1.30;;;;;;;;;;5036944;28;20033;-56
2023/08/06 09:37:11;;;;;;;1.10;1.00;;;;;;;;;;5054643;28;20033;-56
2023/08/06 09:39:38;;;;;;;1.00;1.00;;;;;;;;;;5054626;28;20038;-56
2023/08/06 09:42:04;;;;;;;0.80;0.80;;;;;;;;;;5054070;28;20103;-57
2023/08/06 09:44:31;;;;;;;0.77;0.77;;;;;;;;;;5054117;28;20043;-57
2023/08/06 09:47:00;;;;;;;0.80;0.80;;;;;;;;;;5043199;28;20033;-56
2023/08/06 09:49:27;;;;;;;0.63;0.63;;;;;;;;;;5044141;28;20036;-57
2023/08/06 09:51:55;;;;;;;0.70;0.70;;;;;;;;;;5031605;28;20027;-56
2023/08/06 09:54:22;;;;;;;0.80;0.80;;;;;;;;;;5049846;28;20039;-57
2023/08/06 09:56:47;;;;;;;1.67;0.68;;;;;;;;;;5037382;28;20087;-56
2023/08/06 09:59:13;;;;;;;0.50;0.50;;;;;;;;;;5033624;28;20434;-60
2023/08/06 10:01:38;;;;;;;0.60;0.60;;;;;;;;;;5033894;28;20112;-60
2023/08/06 10:04:05;;;;;;;0.45;0.45;;;;;;;;;;5034493;28;20037;-60
2023/08/06 10:06:33;;;;;;;0.60;0.50;;;;;;;;;;5034248;28;20056;-61
2023/08/06 10:08:59;;;;;;;0.40;0.40;;;;;;;;;;5033984;28;20046;-61
2023/08/06 10:11:27;;;;;;;1.15;0.60;;;;;;;;;;5034224;28;20032;-57
2023/08/06 10:13:55;;;;;;;1.00;0.40;;;;;;;;;;5034855;28;20041;-57
2023/08/06 10:16:22;;;;;;;0.50;0.50;;;;;;;;;;5034925;28;20013;-57
2023/08/06 10:18:57;;;;;;;1.10;0.30;;;;;;;;;;5033537;28;20475;-56
2023/08/06 10:21:27;;;;;;;1.08;0.30;;;;;;;;;;5033130;28;20044;-57
2023/08/06 10:23:55;;;;;;;0.50;0.30;;;;;;;;;;5033890;28;20036;-57
2023/08/06 10:26:24;;;;;;;0.40;0.40;;;;;;;;;;5073772;22;20057;-60
2023/08/06 10:28:50;;;;;;;0.38;0.38;;;;;;;;;;5062714;22;20537;-57
2023/08/06 10:31:15;;;;;;;0.30;0.30;;;;;;;;;;5081714;22;20049;-56
2023/08/06 10:33:42;;;;;;;0.65;0.35;;;;;;;;;;5068417;22;20066;-60
2023/08/06 10:36:09;;;;;;;1.50;0.40;;;;;;;;;;5052012;28;20036;-61
2023/08/06 10:38:36;;;;;;;0.40;0.40;;;;;;;;;;5052125;28;20087;-61
2023/08/06 10:41:03;;;;;;;0.30;0.30;;;;;;;;;;5052379;28;20055;-61
2023/08/06 10:43:29;;;;;;;2.75;0.40;;;;;;;;;;5035065;28;20041;-61
2023/08/06 10:45:55;;;;;;;0.30;0.30;;;;;;;;;;5052725;28;20033;-61
2023/08/06 10:48:31;;;;;;;0.43;0.38;;;;;;;;;;5053018;28;20037;-61
2023/08/06 10:50:59;;;;;;;0.50;0.50;;;;;;;;;;5053783;28;20449;-61
2023/08/06 10:53:24;;;;;;;0.50;0.50;;;;;;;;;;5052403;28;20025;-61
2023/08/06 10:55:50;;;;;;;0.50;0.50;;;;;;;;;;5053650;28;20356;-61
2023/08/06 10:58:16;;;;;;;1.00;0.40;;;;;;;;;;5053881;28;20036;-61
2023/08/06 11:00:41;;;;;;;0.55;0.52;;;;;;;;;;5036079;28;20025;-61
2023/08/06 11:03:07;;;;;;;0.40;0.40;;;;;;;;;;5054106;28;20043;-61
2023/08/06 11:05:32;;;;;;;0.50;0.50;;;;;;;;;;5054101;28;20028;-61
2023/08/06 11:07:58;;;;;;;0.43;0.40;;;;;;;;;;5053706;28;20123;-61
2023/08/06 11:10:23;;;;;;;0.32;0.32;;;;;;;;;;5054056;28;20040;-61
2023/08/06 11:12:48;;;;;;;1.85;0.60;;;;;;;;;;5053466;28;20029;-61
2023/08/06 11:15:14;;;;;;;2.15;0.57;;;;;;;;;;5035627;28;20112;-61
2023/08/06 11:17:40;;;;;;;0.70;0.70;;;;;;;;;;5053710;28;20067;-61
2023/08/06 11:20:05;;;;;;;1.95;0.73;;;;;;;;;;5053926;28;20033;-61
2023/08/06 11:22:31;;;;;;;0.50;0.50;;;;;;;;;;5035504;28;20382;-61
2023/08/06 11:24:56;;;;;;;0.60;0.50;;;;;;;;;;5053368;28;20497;-61
2023/08/06 11:27:21;;;;;;;0.47;0.47;;;;;;;;;;5053527;28;20054;-61
2023/08/06 11:29:47;;;;;;;0.57;0.40;;;;;;;;;;5053611;28;20032;-61
2023/08/06 11:32:12;;;;;;;0.47;0.47;;;;;;;;;;5053305;28;20437;-61
2023/08/06 11:34:38;;;;;;;0.70;0.70;;;;;;;;;;5053565;28;20039;-61
2023/08/06 11:37:07;;;;;;;0.95;0.95;;;;;;;;;;5053519;28;20017;-61
2023/08/06 11:39:33;;;;;;;1.08;0.98;;;;;;;;;;5053486;28;20025;-61
2023/08/06 11:42:00;;;;;;;1.00;0.90;;;;;;;;;;5038433;28;20083;-61
2023/08/06 11:44:25;;;;;;;1.10;0.88;;;;;;;;;;5039533;28;20459;-61
2023/08/06 11:46:55;;;;;;;0.65;0.65;;;;;;;;;;5057059;28;20040;-61
2023/08/06 11:49:40;;;;;;;0.65;0.65;;;;;;;;;;5057211;28;20036;-61
2023/08/06 11:52:11;;;;;;;0.65;0.60;;;;;;;;;;5057243;28;20387;-61
2023/08/06 11:54:37;;;;;;;0.50;0.40;;;;;;;;;;5056934;28;20033;-61
2023/08/06 11:57:03;;;;;;;0.50;0.50;;;;;;;;;;5057383;28;20060;-61
2023/08/06 11:59:28;;;;;;;1.55;0.60;;;;;;;;;;5057143;28;20021;-61
2023/08/06 12:01:53;;;;;;;0.50;0.50;;;;;;;;;;5038885;28;20041;-61
2023/08/06 12:04:18;;;;;;;0.50;0.50;;;;;;;;;;5056981;28;20087;-61
2023/08/06 12:06:44;;;;;;;0.47;0.47;;;;;;;;;;5056963;28;20049;-61
2023/08/06 12:09:10;;;;;;;0.60;0.60;;;;;;;;;;5056552;28;20099;-61
2023/08/06 12:11:35;;;;;;;0.50;0.50;;;;;;;;;;5038724;28;20029;-61
2023/08/06 12:14:01;;;;;;;0.68;0.68;;;;;;;;;;5056759;28;20071;-61
2023/08/06 12:16:28;;;;;;;0.75;0.75;;;;;;;;;;5055241;28;20032;-61
2023/08/06 12:18:53;;;;;;;1.63;1.52;;;;;;;;;;5056725;28;20071;-61
2023/08/06 12:21:18;;;;;;;1.10;1.05;;;;;;;;;;5038534;28;20044;-61
2023/08/06 12:23:44;;;;;;;1.38;1.10;;;;;;;;;;5056345;28;20097;-61
2023/08/06 12:26:09;;;;;;;1.05;0.95;;;;;;;;;;5038516;28;20394;-61
2023/08/06 12:28:34;;;;;;;0.65;0.65;;;;;;;;;;5056778;28;20040;-61
2023/08/06 12:30:59;;;;;;;1.60;0.70;;;;;;;;;;5056816;28;20017;-61
2023/08/06 12:33:25;;;;;;;0.82;0.60;;;;;;;;;;5038270;28;20080;-61
2023/08/06 12:35:52;;;;;;;0.70;0.70;;;;;;;;;;5056153;28;20027;-61
2023/08/06 12:38:17;;;;;;;0.75;0.55;;;;;;;;;;5054944;28;20471;-61
2023/08/06 12:40:43;;;;;;;0.82;0.82;;;;;;;;;;5056324;28;20044;-61
2023/08/06 12:43:09;;;;;;;1.25;0.88;;;;;;;;;;5056289;28;20430;-61
2023/08/06 12:45:34;;;;;;;2.03;1.70;;;;;;;;;;5056259;28;20048;-61
2023/08/06 12:47:59;;;;;;;0.70;0.70;;;;;;;;;;5055849;28;20029;-61
2023/08/06 12:50:25;;;;;;;0.70;0.50;;;;;;;;;;5055821;28;20063;-61
2023/08/06 12:52:51;;;;;;;1.13;0.90;;;;;;;;;;5055107;28;20028;-61
2023/08/06 12:55:16;;;;;;;1.25;1.13;;;;;;;;;;5056058;28;20021;-61
2023/08/06 12:57:41;;;;;;;1.75;0.98;;;;;;;;;;5056273;28;20044;-61
2023/08/06 13:00:07;;;;;;;3.28;1.33;;;;;;;;;;5037849;28;20032;-61
2023/08/06 13:02:32;;;;;;;3.70;1.13;;;;;;;;;;5054385;28;20072;-61
2023/08/06 13:04:58;;;;;;;1.20;1.10;;;;;;;;;;5037682;28;20047;-61
2023/08/06 13:07:23;;;;;;;0.93;0.93;;;;;;;;;;5055454;28;20375;-61
2023/08/06 13:09:48;;;;;;;0.93;0.82;;;;;;;;;;5055800;28;20071;-61
2023/08/06 13:12:14;;;;;;;1.05;0.88;;;;;;;;;;5055534;28;20025;-61
2023/08/06 13:14:39;;;;;;;0.75;0.70;;;;;;;;;;5055698;28;20041;-61
2023/08/06 13:17:06;;;;;;;0.60;0.60;;;;;;;;;;5055653;28;20028;-61
2023/08/06 13:19:32;;;;;;;0.70;0.70;;;;;;;;;;5055556;28;20067;-61
2023/08/06 13:22:02;;;;;;;0.55;0.55;;;;;;;;;;5055833;28;20098;-61
2023/08/06 13:24:27;;;;;;;0.57;0.57;;;;;;;;;;5055251;28;20036;-61
2023/08/06 13:26:53;;;;;;;0.50;0.50;;;;;;;;;;5055467;28;20025;-61
2023/08/06 13:29:18;;;;;;;0.50;0.50;;;;;;;;;;5055641;28;20029;-61
2023/08/06 13:31:44;;;;;;;0.45;0.45;;;;;;;;;;5055071;28;20426;-61
2023/08/06 13:34:09;;;;;;;0.50;0.50;;;;;;;;;;5054922;28;20049;-61
2023/08/06 13:36:35;;;;;;;0.43;0.40;;;;;;;;;;5054982;28;20067;-61
2023/08/06 13:39:00;;;;;;;0.52;0.52;;;;;;;;;;5055239;28;20040;-61
2023/08/06 13:41:25;;;;;;;3.22;0.50;;;;;;;;;;5037097;28;20083;-61
2023/08/06 13:43:51;;;;;;;0.82;0.60;;;;;;;;;;5055112;28;20040;-61
2023/08/06 13:46:19;;;;;;;0.40;0.40;;;;;;;;;;5055063;28;20041;-61
2023/08/06 13:48:45;;;;;;;0.50;0.50;;;;;;;;;;5054957;28;20021;-61
2023/08/06 13:51:11;;;;;;;0.65;0.65;;;;;;;;;;5055231;28;20036;-61
2023/08/06 13:53:36;;;;;;;0.80;0.80;;;;;;;;;;5054585;28;20073;-61
2023/08/06 13:56:02;;;;;;;0.93;0.77;;;;;;;;;;5054545;28;20040;-62
2023/08/06 13:58:30;;;;;;;1.10;1.00;;;;;;;;;;5048877;28;20025;-61
2023/08/06 14:00:57;;;;;;;0.82;0.82;;;;;;;;;;5046231;28;20029;-58
2023/08/06 14:03:22;;;;;;;0.65;0.65;;;;;;;;;;5046802;28;20040;-57
2023/08/06 14:05:48;;;;;;;0.75;0.75;;;;;;;;;;5043196;28;20024;-57
2023/08/06 14:08:14;;;;;;;0.75;0.75;;;;;;;;;;5047682;28;20490;-58
2023/08/06 14:10:39;;;;;;;0.90;0.77;;;;;;;;;;5045953;28;20033;-57
2023/08/06 14:13:04;;;;;;;0.70;0.70;;;;;;;;;;5047703;28;20027;-57
2023/08/06 14:15:30;;;;;;;0.70;0.70;;;;;;;;;;5046138;28;20027;-58
2023/08/06 14:17:55;;;;;;;0.90;0.88;;;;;;;;;;5032042;28;20075;-58
2023/08/06 14:20:20;;;;;;;1.25;1.17;;;;;;;;;;5050256;28;20602;-58
2023/08/06 14:22:45;;;;;;;1.60;1.50;;;;;;;;;;5045917;28;20039;-58
2023/08/06 14:25:11;;;;;;;1.98;1.65;;;;;;;;;;5030878;28;20021;-58
2023/08/06 14:27:38;;;;;;;3.10;1.65;;;;;;;;;;5052606;28;20119;-57
2023/08/06 14:30:04;;;;;;;2.22;1.90;;;;;;;;;;5035884;28;20037;-57
2023/08/06 14:32:30;;;;;;;1.48;1.17;;;;;;;;;;5053308;28;20490;-57
2023/08/06 14:34:55;;;;;;;1.50;1.23;;;;;;;;;;5053606;28;20124;-58
2023/08/06 14:37:20;;;;;;;1.73;0.90;;;;;;;;;;5035783;28;20082;-58
2023/08/06 14:39:46;;;;;;;3.30;0.85;;;;;;;;;;5053665;28;20067;-57
2023/08/06 14:42:11;;;;;;;1.13;1.00;;;;;;;;;;5053506;28;20078;-58